sensor_id;sensor_type;location;lat;lon;timestamp;temperature;humidity
23188;DHT22;11762;59.878;17.686;2023-05-14T01:34:45;7.30;99.90
23188;DHT22;11762;59.878;17.686;2023-05-14T01:37:13;7.10;99.90
23188;DHT22;11762;59.878;17.686;2023-05-14T01:39:41;7.10;99.90
23188;DHT22;11762;59.878;17.686;2023-05-14T01:42:09;7.10;99.90
23188;DHT22;11762;59.878;17.686;2023-05-14T01:44:37;7.00;99.90
23188;DHT22;11762;59.878;17.686;2023-05-14T01:47:04;7.00;99.90
23188;DHT22;11762;59.878;17.686;2023-05-14T01:49:31;7.00;99.90
23188;DHT22;11762;59.878;17.686;2023-05-14T01:52:00;7.00;99.90
23188;DHT22;11762;59.878;17.686;2023-05-14T01:54:27;6.90;99.90
23188;DHT22;11762;59.878;17.686;2023-05-14T01:56:54;7.00;99.90
23188;DHT22;11762;59.878;17.686;2023-05-14T01:59:21;6.90;99.90
23188;DHT22;11762;59.878;17.686;2023-05-14T02:01:48;6.90;99.90
23188;DHT22;11762;59.878;17.686;2023-05-14T02:04:15;6.80;99.90
23188;DHT22;11762;59.878;17.686;2023-05-14T02:06:42;6.80;99.90
23188;DHT22;11762;59.878;17.686;2023-05-14T02:09:11;6.70;99.90
23188;DHT22;11762;59.878;17.686;2023-05-14T02:11:38;6.70;99.90
23188;DHT22;11762;59.878;17.686;2023-05-14T02:14:05;6.60;99.90
23188;DHT22;11762;59.878;17.686;2023-05-14T02:16:32;6.50;99.90
23188;DHT22;11762;59.878;17.686;2023-05-14T02:18:59;6.40;99.90
23188;DHT22;11762;59.878;17.686;2023-05-14T02:21:26;6.20;99.90
23188;DHT22;11762;59.878;17.686;2023-05-14T02:23:54;6.10;99.90
23188;DHT22;11762;59.878;17.686;2023-05-14T02:26:23;6.10;99.90
23188;DHT22;11762;59.878;17.686;2023-05-14T02:28:50;6.10;99.90
23188;DHT22;11762;59.878;17.686;2023-05-14T02:31:17;6.10;99.90
23188;DHT22;11762;59.878;17.686;2023-05-14T02:33:44;6.10;99.90
23188;DHT22;11762;59.878;17.686;2023-05-14T02:36:11;6.20;99.90
23188;DHT22;11762;59.878;17.686;2023-05-14T02:38:38;6.20;99.90
23188;DHT22;11762;59.878;17.686;2023-05-14T02:41:05;6.30;99.90
23188;DHT22;11762;59.878;17.686;2023-05-14T02:43:34;6.50;99.90
23188;DHT22;11762;59.878;17.686;2023-05-14T02:46:01;6.80;99.90
23188;DHT22;11762;59.878;17.686;2023-05-14T02:48:28;7.00;99.90
23188;DHT22;11762;59.878;17.686;2023-05-14T02:50:55;7.30;99.90
23188;DHT22;11762;59.878;17.686;2023-05-14T02:53:22;7.50;99.90
23188;DHT22;11762;59.878;17.686;2023-05-14T02:55:49;7.80;99.90
23188;DHT22;11762;59.878;17.686;2023-05-14T02:58:16;8.00;99.90
23188;DHT22;11762;59.878;17.686;2023-05-14T03:00:45;8.10;99.90
23188;DHT22;11762;59.878;17.686;2023-05-14T03:03:12;8.40;99.90
23188;DHT22;11762;59.878;17.686;2023-05-14T03:05:39;8.40;99.90
23188;DHT22;11762;59.878;17.686;2023-05-14T03:08:06;8.00;99.90
23188;DHT22;11762;59.878;17.686;2023-05-14T03:10:33;7.80;99.90
23188;DHT22;11762;59.878;17.686;2023-05-14T03:13:00;7.50;99.90
23188;DHT22;11762;59.878;17.686;2023-05-14T03:15:27;7.20;99.90
23188;DHT22;11762;59.878;17.686;2023-05-14T03:17:55;6.90;99.90
23188;DHT22;11762;59.878;17.686;2023-05-14T03:20:23;6.60;99.90
23188;DHT22;11762;59.878;17.686;2023-05-14T03:22:50;6.40;99.90
23188;DHT22;11762;59.878;17.686;2023-05-14T03:25:17;6.30;99.90
23188;DHT22;11762;59.878;17.686;2023-05-14T03:27:44;6.30;99.90
23188;DHT22;11762;59.878;17.686;2023-05-14T03:30:12;6.60;99.90
23188;DHT22;11762;59.878;17.686;2023-05-14T03:32:39;7.10;99.90
23188;DHT22;11762;59.878;17.686;2023-05-14T03:35:09;7.30;99.90
23188;DHT22;11762;59.878;17.686;2023-05-14T03:37:36;7.10;99.90
23188;DHT22;11762;59.878;17.686;2023-05-14T03:40:03;6.90;99.90
23188;DHT22;11762;59.878;17.686;2023-05-14T03:42:31;6.80;99.90
23188;DHT22;11762;59.878;17.686;2023-05-14T03:44:58;6.90;99.90
23188;DHT22;11762;59.878;17.686;2023-05-14T03:47:25;7.00;99.90
23188;DHT22;11762;59.878;17.686;2023-05-14T03:49:52;7.20;99.90
23188;DHT22;11762;59.878;17.686;2023-05-14T03:52:20;7.20;99.90
23188;DHT22;11762;59.878;17.686;2023-05-14T03:54:47;7.20;99.90
23188;DHT22;11762;59.878;17.686;2023-05-14T03:57:14;7.30;99.90
23188;DHT22;11762;59.878;17.686;2023-05-14T03:59:41;7.40;99.90
23188;DHT22;11762;59.878;17.686;2023-05-14T04:02:08;7.60;99.90
23188;DHT22;11762;59.878;17.686;2023-05-14T04:04:35;7.80;99.90
23188;DHT22;11762;59.878;17.686;2023-05-14T04:07:03;8.00;99.90
23188;DHT22;11762;59.878;17.686;2023-05-14T04:09:31;8.20;99.90
23188;DHT22;11762;59.878;17.686;2023-05-14T04:11:58;8.40;99.90
23188;DHT22;11762;59.878;17.686;2023-05-14T04:14:25;8.50;99.90
23188;DHT22;11762;59.878;17.686;2023-05-14T04:16:52;8.50;99.90
23188;DHT22;11762;59.878;17.686;2023-05-14T04:19:19;8.70;99.90
23188;DHT22;11762;59.878;17.686;2023-05-14T04:21:46;8.90;99.90
23188;DHT22;11762;59.878;17.686;2023-05-14T04:24:13;9.00;99.90
23188;DHT22;11762;59.878;17.686;2023-05-14T04:26:42;9.00;99.90
23188;DHT22;11762;59.878;17.686;2023-05-14T04:29:09;9.10;99.90
23188;DHT22;11762;59.878;17.686;2023-05-14T04:31:35;9.20;99.90
23188;DHT22;11762;59.878;17.686;2023-05-14T04:34:02;9.40;99.90
23188;DHT22;11762;59.878;17.686;2023-05-14T04:36:29;9.70;99.90
23188;DHT22;11762;59.878;17.686;2023-05-14T04:38:57;10.00;99.90
23188;DHT22;11762;59.878;17.686;2023-05-14T04:41:24;10.20;99.90
23188;DHT22;11762;59.878;17.686;2023-05-14T04:43:54;10.50;99.90
23188;DHT22;11762;59.878;17.686;2023-05-14T04:46:22;10.70;99.90
23188;DHT22;11762;59.878;17.686;2023-05-14T04:48:49;10.90;99.90
23188;DHT22;11762;59.878;17.686;2023-05-14T04:51:16;11.20;99.90
23188;DHT22;11762;59.878;17.686;2023-05-14T04:53:43;11.40;99.90
23188;DHT22;11762;59.878;17.686;2023-05-14T04:56:11;11.90;99.90
23188;DHT22;11762;59.878;17.686;2023-05-14T04:58:38;12.50;99.90
23188;DHT22;11762;59.878;17.686;2023-05-14T05:01:06;13.50;99.90
23188;DHT22;11762;59.878;17.686;2023-05-14T05:03:33;14.10;99.90
23188;DHT22;11762;59.878;17.686;2023-05-14T05:06:00;13.30;99.90
23188;DHT22;11762;59.878;17.686;2023-05-14T05:08:28;12.90;99.90
23188;DHT22;11762;59.878;17.686;2023-05-14T05:10:55;13.20;99.90
23188;DHT22;11762;59.878;17.686;2023-05-14T05:13:22;14.00;99.90
23188;DHT22;11762;59.878;17.686;2023-05-14T05:15:49;14.70;99.90
23188;DHT22;11762;59.878;17.686;2023-05-14T05:18:18;14.60;99.90
23188;DHT22;11762;59.878;17.686;2023-05-14T05:20:45;14.80;99.90
23188;DHT22;11762;59.878;17.686;2023-05-14T05:23:12;15.40;99.90
23188;DHT22;11762;59.878;17.686;2023-05-14T05:25:39;16.10;99.90
23188;DHT22;11762;59.878;17.686;2023-05-14T05:28:06;16.20;99.90
23188;DHT22;11762;59.878;17.686;2023-05-14T05:30:33;16.40;99.90
23188;DHT22;11762;59.878;17.686;2023-05-14T05:33:00;16.90;99.90
23188;DHT22;11762;59.878;17.686;2023-05-14T05:35:29;16.70;99.90
23188;DHT22;11762;59.878;17.686;2023-05-14T05:37:56;16.50;99.90
23188;DHT22;11762;59.878;17.686;2023-05-14T05:40:23;16.00;99.90
23188;DHT22;11762;59.878;17.686;2023-05-14T05:42:51;15.80;99.90
23188;DHT22;11762;59.878;17.686;2023-05-14T05:45:18;16.00;99.90
23188;DHT22;11762;59.878;17.686;2023-05-14T05:47:45;16.30;99.90
23188;DHT22;11762;59.878;17.686;2023-05-14T05:50:12;16.30;99.90
23188;DHT22;11762;59.878;17.686;2023-05-14T05:52:41;16.00;99.90
23188;DHT22;11762;59.878;17.686;2023-05-14T05:55:08;15.60;99.90
23188;DHT22;11762;59.878;17.686;2023-05-14T05:57:36;15.60;99.90
23188;DHT22;11762;59.878;17.686;2023-05-14T06:00:03;15.50;99.90
23188;DHT22;11762;59.878;17.686;2023-05-14T06:02:37;15.30;99.90
23188;DHT22;11762;59.878;17.686;2023-05-14T06:05:05;15.30;99.90
23188;DHT22;11762;59.878;17.686;2023-05-14T06:07:33;15.60;99.90
23188;DHT22;11762;59.878;17.686;2023-05-14T06:10:02;15.80;99.90
23188;DHT22;11762;59.878;17.686;2023-05-14T06:12:29;15.90;99.90
23188;DHT22;11762;59.878;17.686;2023-05-14T06:14:56;16.10;99.90
23188;DHT22;11762;59.878;17.686;2023-05-14T06:17:32;16.20;99.90
23188;DHT22;11762;59.878;17.686;2023-05-14T06:19:59;16.50;99.90
23188;DHT22;11762;59.878;17.686;2023-05-14T06:22:26;16.50;99.90
23188;DHT22;11762;59.878;17.686;2023-05-14T06:24:56;16.50;99.90
23188;DHT22;11762;59.878;17.686;2023-05-14T06:27:24;17.10;99.90
23188;DHT22;11762;59.878;17.686;2023-05-14T06:29:51;16.90;99.90
23188;DHT22;11762;59.878;17.686;2023-05-14T22:53:54;17.20;99.90
23188;DHT22;11762;59.878;17.686;2023-05-14T22:56:21;11.60;96.70
23188;DHT22;11762;59.878;17.686;2023-05-14T22:58:48;11.50;96.70
23188;DHT22;11762;59.878;17.686;2023-05-14T23:01:15;11.50;96.70
23188;DHT22;11762;59.878;17.686;2023-05-14T23:03:43;11.40;96.90
23188;DHT22;11762;59.878;17.686;2023-05-14T23:06:10;11.40;96.80
23188;DHT22;11762;59.878;17.686;2023-05-14T23:08:39;11.30;97.10
23188;DHT22;11762;59.878;17.686;2023-05-14T23:11:06;11.30;97.00
23188;DHT22;11762;59.878;17.686;2023-05-14T23:13:33;11.20;96.30
23188;DHT22;11762;59.878;17.686;2023-05-14T23:16:00;11.30;96.60
23188;DHT22;11762;59.878;17.686;2023-05-14T23:18:27;11.30;96.50
23188;DHT22;11762;59.878;17.686;2023-05-14T23:20:56;11.20;96.50
23188;DHT22;11762;59.878;17.686;2023-05-14T23:23:23;11.20;96.60
23188;DHT22;11762;59.878;17.686;2023-05-14T23:25:50;11.10;96.90
23188;DHT22;11762;59.878;17.686;2023-05-14T23:28:18;11.00;97.00
23188;DHT22;11762;59.878;17.686;2023-05-14T23:30:45;10.80;97.70
23188;DHT22;11762;59.878;17.686;2023-05-14T23:33:12;10.70;97.90
23188;DHT22;11762;59.878;17.686;2023-05-14T23:35:39;10.50;98.20
23188;DHT22;11762;59.878;17.686;2023-05-14T23:38:08;10.40;98.40
23188;DHT22;11762;59.878;17.686;2023-05-14T23:40:35;10.20;98.90
23188;DHT22;11762;59.878;17.686;2023-05-14T23:43:02;9.90;99.40
23188;DHT22;11762;59.878;17.686;2023-05-14T23:45:29;9.90;99.40
23188;DHT22;11762;59.878;17.686;2023-05-14T23:47:57;9.80;99.40
23188;DHT22;11762;59.878;17.686;2023-05-14T23:50:26;9.80;99.40
23188;DHT22;11762;59.878;17.686;2023-05-14T23:52:53;9.80;99.40
23188;DHT22;11762;59.878;17.686;2023-05-14T23:55:22;9.70;99.40
23188;DHT22;11762;59.878;17.686;2023-05-14T23:57:49;9.70;99.50
